sensor_id;sensor_type;location;lat;lon;timestamp;P1;durP1;ratioP1;P2;durP2;ratioP2
19535;SDS011;9913;51.168;4.124;2023-03-22T00:02:21;7.27;;;2.77;;
19535;SDS011;9913;51.168;4.124;2023-03-22T00:04:51;7.67;;;2.83;;
19535;SDS011;9913;51.168;4.124;2023-03-22T00:07:20;6.30;;;2.73;;
19535;SDS011;9913;51.168;4.124;2023-03-22T00:09:48;7.77;;;2.97;;
19535;SDS011;9913;51.168;4.124;2023-03-22T00:12:16;9.00;;;3.57;;
19535;SDS011;9913;51.168;4.124;2023-03-22T00:14:46;7.70;;;3.47;;
19535;SDS011;9913;51.168;4.124;2023-03-22T00:17:15;9.80;;;3.67;;
19535;SDS011;9913;51.168;4.124;2023-03-22T00:19:44;7.17;;;3.80;;
19535;SDS011;9913;51.168;4.124;2023-03-22T00:22:12;8.77;;;4.50;;
19535;SDS011;9913;51.168;4.124;2023-03-22T00:24:41;10.70;;;4.50;;
19535;SDS011;9913;51.168;4.124;2023-03-22T00:27:10;11.73;;;4.40;;
19535;SDS011;9913;51.168;4.124;2023-03-22T00:29:40;9.43;;;4.77;;
19535;SDS011;9913;51.168;4.124;2023-03-22T00:32:10;10.57;;;5.40;;
19535;SDS011;9913;51.168;4.124;2023-03-22T00:34:38;12.03;;;5.80;;
19535;SDS011;9913;51.168;4.124;2023-03-22T00:37:07;9.23;;;5.23;;
19535;SDS011;9913;51.168;4.124;2023-03-22T00:39:36;11.53;;;5.97;;
19535;SDS011;9913;51.168;4.124;2023-03-22T00:42:05;14.27;;;6.20;;
19535;SDS011;9913;51.168;4.124;2023-03-22T00:44:33;14.00;;;7.07;;
19535;SDS011;9913;51.168;4.124;2023-03-22T00:47:01;14.00;;;8.10;;
19535;SDS011;9913;51.168;4.124;2023-03-22T00:49:31;14.33;;;7.93;;
19535;SDS011;9913;51.168;4.124;2023-03-22T00:52:00;13.10;;;8.47;;
19535;SDS011;9913;51.168;4.124;2023-03-22T00:54:29;15.70;;;8.20;;
19535;SDS011;9913;51.168;4.124;2023-03-22T00:56:57;14.03;;;8.93;;
19535;SDS011;9913;51.168;4.124;2023-03-22T00:59:25;16.37;;;8.87;;
19535;SDS011;9913;51.168;4.124;2023-03-22T01:01:54;14.03;;;9.23;;
19535;SDS011;9913;51.168;4.124;2023-03-22T01:04:24;20.47;;;9.63;;
19535;SDS011;9913;51.168;4.124;2023-03-22T01:06:57;14.77;;;9.67;;
19535;SDS011;9913;51.168;4.124;2023-03-22T01:09:28;15.20;;;9.07;;
19535;SDS011;9913;51.168;4.124;2023-03-22T01:12:00;15.23;;;9.50;;
19535;SDS011;9913;51.168;4.124;2023-03-22T01:14:28;16.53;;;9.83;;
19535;SDS011;9913;51.168;4.124;2023-03-22T01:16:57;14.83;;;8.93;;
19535;SDS011;9913;51.168;4.124;2023-03-22T01:19:26;16.40;;;9.30;;
19535;SDS011;9913;51.168;4.124;2023-03-22T01:21:54;18.80;;;9.73;;
19535;SDS011;9913;51.168;4.124;2023-03-22T01:24:25;16.87;;;10.60;;
19535;SDS011;9913;51.168;4.124;2023-03-22T01:26:54;24.43;;;9.60;;
19535;SDS011;9913;51.168;4.124;2023-03-22T01:29:22;17.17;;;9.03;;
19535;SDS011;9913;51.168;4.124;2023-03-22T01:31:51;19.57;;;9.83;;
19535;SDS011;9913;51.168;4.124;2023-03-22T01:34:19;16.80;;;9.73;;
19535;SDS011;9913;51.168;4.124;2023-03-22T01:36:49;17.57;;;9.53;;
19535;SDS011;9913;51.168;4.124;2023-03-22T01:39:17;16.20;;;9.43;;
19535;SDS011;9913;51.168;4.124;2023-03-22T01:41:51;16.43;;;8.63;;
19535;SDS011;9913;51.168;4.124;2023-03-22T01:44:20;15.17;;;8.90;;
19535;SDS011;9913;51.168;4.124;2023-03-22T01:46:52;14.30;;;7.97;;
19535;SDS011;9913;51.168;4.124;2023-03-22T01:49:21;16.50;;;8.97;;
19535;SDS011;9913;51.168;4.124;2023-03-22T01:51:54;15.47;;;7.83;;
19535;SDS011;9913;51.168;4.124;2023-03-22T01:54:35;14.33;;;8.10;;
19535;SDS011;9913;51.168;4.124;2023-03-22T01:57:27;13.43;;;8.37;;
19535;SDS011;9913;51.168;4.124;2023-03-22T02:00:00;13.50;;;8.20;;
19535;SDS011;9913;51.168;4.124;2023-03-22T02:03:10;15.43;;;8.17;;
19535;SDS011;9913;51.168;4.124;2023-03-22T02:05:45;14.77;;;8.27;;
19535;SDS011;9913;51.168;4.124;2023-03-22T02:08:16;14.77;;;8.00;;
19535;SDS011;9913;51.168;4.124;2023-03-22T02:10:56;13.53;;;7.87;;
19535;SDS011;9913;51.168;4.124;2023-03-22T02:13:34;14.13;;;7.50;;
19535;SDS011;9913;51.168;4.124;2023-03-22T02:16:47;14.87;;;7.40;;
19535;SDS011;9913;51.168;4.124;2023-03-22T02:19:32;12.97;;;7.63;;
19535;SDS011;9913;51.168;4.124;2023-03-22T02:28:21;11.07;;;6.90;;
19535;SDS011;9913;51.168;4.124;2023-03-22T02:34:09;10.80;;;6.97;;
19535;SDS011;9913;51.168;4.124;2023-03-22T02:40:27;11.37;;;6.40;;
19535;SDS011;9913;51.168;4.124;2023-03-22T02:43:02;10.77;;;6.73;;
19535;SDS011;9913;51.168;4.124;2023-03-22T02:45:40;10.50;;;6.67;;
19535;SDS011;9913;51.168;4.124;2023-03-22T02:48:14;16.80;;;6.87;;
19535;SDS011;9913;51.168;4.124;2023-03-22T02:50:49;14.40;;;6.97;;
19535;SDS011;9913;51.168;4.124;2023-03-22T02:53:21;8.50;;;5.80;;
19535;SDS011;9913;51.168;4.124;2023-03-22T02:55:58;12.53;;;6.10;;
19535;SDS011;9913;51.168;4.124;2023-03-22T02:58:30;14.27;;;5.80;;
19535;SDS011;9913;51.168;4.124;2023-03-22T03:01:03;13.10;;;5.57;;
19535;SDS011;9913;51.168;4.124;2023-03-22T03:03:35;10.77;;;5.43;;
19535;SDS011;9913;51.168;4.124;2023-03-22T03:06:06;12.07;;;5.83;;
19535;SDS011;9913;51.168;4.124;2023-03-22T03:08:38;11.03;;;5.50;;
19535;SDS011;9913;51.168;4.124;2023-03-22T03:11:09;13.40;;;5.60;;
19535;SDS011;9913;51.168;4.124;2023-03-22T03:13:37;11.80;;;6.00;;
19535;SDS011;9913;51.168;4.124;2023-03-22T03:16:05;12.30;;;5.87;;
19535;SDS011;9913;51.168;4.124;2023-03-22T03:18:45;16.00;;;5.50;;
19535;SDS011;9913;51.168;4.124;2023-03-22T03:21:23;14.40;;;5.33;;
19535;SDS011;9913;51.168;4.124;2023-03-22T03:24:07;11.03;;;4.90;;
19535;SDS011;9913;51.168;4.124;2023-03-22T03:26:47;11.27;;;5.50;;
19535;SDS011;9913;51.168;4.124;2023-03-22T03:29:26;9.73;;;4.93;;
19535;SDS011;9913;51.168;4.124;2023-03-22T03:32:01;13.43;;;5.03;;
19535;SDS011;9913;51.168;4.124;2023-03-22T03:34:37;9.37;;;4.77;;
19535;SDS011;9913;51.168;4.124;2023-03-22T03:37:12;11.43;;;4.63;;
19535;SDS011;9913;51.168;4.124;2023-03-22T03:39:47;9.33;;;4.43;;
19535;SDS011;9913;51.168;4.124;2023-03-22T03:42:20;11.77;;;5.13;;
19535;SDS011;9913;51.168;4.124;2023-03-22T03:44:52;9.73;;;4.23;;
19535;SDS011;9913;51.168;4.124;2023-03-22T03:47:23;8.43;;;4.37;;
19535;SDS011;9913;51.168;4.124;2023-03-22T03:49:52;9.97;;;4.00;;
19535;SDS011;9913;51.168;4.124;2023-03-22T03:52:21;7.43;;;3.63;;
19535;SDS011;9913;51.168;4.124;2023-03-22T03:54:50;9.73;;;3.80;;
19535;SDS011;9913;51.168;4.124;2023-03-22T03:57:26;8.70;;;3.03;;
19535;SDS011;9913;51.168;4.124;2023-03-22T03:59:55;11.17;;;3.63;;
19535;SDS011;9913;51.168;4.124;2023-03-22T04:02:41;8.03;;;3.50;;
19535;SDS011;9913;51.168;4.124;2023-03-22T04:05:26;8.03;;;3.13;;
19535;SDS011;9913;51.168;4.124;2023-03-22T04:07:55;7.43;;;2.97;;
19535;SDS011;9913;51.168;4.124;2023-03-22T04:10:23;8.90;;;3.73;;
19535;SDS011;9913;51.168;4.124;2023-03-22T04:12:53;10.70;;;2.87;;
19535;SDS011;9913;51.168;4.124;2023-03-22T04:15:21;10.10;;;3.03;;
19535;SDS011;9913;51.168;4.124;2023-03-22T04:17:54;9.17;;;2.77;;
19535;SDS011;9913;51.168;4.124;2023-03-22T04:20:26;6.73;;;3.00;;
19535;SDS011;9913;51.168;4.124;2023-03-22T04:22:55;11.37;;;2.77;;
19535;SDS011;9913;51.168;4.124;2023-03-22T04:25:25;5.50;;;2.53;;
19535;SDS011;9913;51.168;4.124;2023-03-22T04:28:02;9.37;;;2.30;;
19535;SDS011;9913;51.168;4.124;2023-03-22T04:30:33;10.00;;;3.00;;
19535;SDS011;9913;51.168;4.124;2023-03-22T04:33:28;7.63;;;2.43;;
19535;SDS011;9913;51.168;4.124;2023-03-22T04:36:16;5.70;;;2.20;;
19535;SDS011;9913;51.168;4.124;2023-03-22T04:39:05;7.47;;;2.37;;
19535;SDS011;9913;51.168;4.124;2023-03-22T04:41:37;8.57;;;2.80;;
19535;SDS011;9913;51.168;4.124;2023-03-22T04:44:07;5.87;;;2.10;;
19535;SDS011;9913;51.168;4.124;2023-03-22T04:46:39;6.63;;;1.90;;
19535;SDS011;9913;51.168;4.124;2023-03-22T04:49:09;7.97;;;2.17;;
19535;SDS011;9913;51.168;4.124;2023-03-22T04:51:40;7.63;;;2.20;;
19535;SDS011;9913;51.168;4.124;2023-03-22T04:54:17;7.63;;;2.27;;
19535;SDS011;9913;51.168;4.124;2023-03-22T04:56:45;7.77;;;1.80;;
19535;SDS011;9913;51.168;4.124;2023-03-22T04:59:17;9.43;;;2.00;;
19535;SDS011;9913;51.168;4.124;2023-03-22T05:01:47;6.33;;;1.77;;
19535;SDS011;9913;51.168;4.124;2023-03-22T05:04:21;8.47;;;2.30;;
19535;SDS011;9913;51.168;4.124;2023-03-22T05:06:56;5.97;;;1.80;;
19535;SDS011;9913;51.168;4.124;2023-03-22T05:09:35;6.40;;;2.30;;
19535;SDS011;9913;51.168;4.124;2023-03-22T05:12:03;8.60;;;2.37;;
19535;SDS011;9913;51.168;4.124;2023-03-22T05:14:46;5.67;;;1.93;;
19535;SDS011;9913;51.168;4.124;2023-03-22T05:17:20;6.03;;;1.80;;
19535;SDS011;9913;51.168;4.124;2023-03-22T05:19:52;9.27;;;1.97;;
19535;SDS011;9913;51.168;4.124;2023-03-22T05:22:20;5.63;;;1.80;;
19535;SDS011;9913;51.168;4.124;2023-03-22T05:24:50;8.53;;;1.97;;
19535;SDS011;9913;51.168;4.124;2023-03-22T05:27:22;5.77;;;1.87;;
19535;SDS011;9913;51.168;4.124;2023-03-22T05:30:12;9.10;;;1.90;;
19535;SDS011;9913;51.168;4.124;2023-03-22T05:32:57;6.83;;;1.90;;
19535;SDS011;9913;51.168;4.124;2023-03-22T05:35:32;10.43;;;2.13;;
19535;SDS011;9913;51.168;4.124;2023-03-22T05:38:02;9.83;;;2.77;;
19535;SDS011;9913;51.168;4.124;2023-03-22T05:40:34;4.97;;;1.90;;
19535;SDS011;9913;51.168;4.124;2023-03-22T05:43:03;5.93;;;1.80;;
19535;SDS011;9913;51.168;4.124;2023-03-22T05:45:34;8.87;;;2.27;;
19535;SDS011;9913;51.168;4.124;2023-03-22T05:48:18;9.93;;;2.10;;
19535;SDS011;9913;51.168;4.124;2023-03-22T05:50:47;10.00;;;2.50;;
19535;SDS011;9913;51.168;4.124;2023-03-22T05:53:16;8.53;;;2.13;;
19535;SDS011;9913;51.168;4.124;2023-03-22T05:55:50;9.33;;;2.20;;
19535;SDS011;9913;51.168;4.124;2023-03-22T05:58:23;8.30;;;1.60;;
19535;SDS011;9913;51.168;4.124;2023-03-22T06:00:56;6.03;;;2.10;;
19535;SDS011;9913;51.168;4.124;2023-03-22T06:03:49;8.23;;;2.33;;
19535;SDS011;9913;51.168;4.124;2023-03-22T06:06:34;10.23;;;1.87;;
19535;SDS011;9913;51.168;4.124;2023-03-22T06:09:12;9.20;;;1.80;;
19535;SDS011;9913;51.168;4.124;2023-03-22T06:11:47;8.97;;;1.73;;
19535;SDS011;9913;51.168;4.124;2023-03-22T06:14:16;9.20;;;2.57;;
19535;SDS011;9913;51.168;4.124;2023-03-22T06:17:01;12.67;;;2.23;;
19535;SDS011;9913;51.168;4.124;2023-03-22T06:19:30;10.07;;;2.53;;
19535;SDS011;9913;51.168;4.124;2023-03-22T06:22:02;8.90;;;2.37;;
19535;SDS011;9913;51.168;4.124;2023-03-22T06:24:32;10.00;;;2.20;;
19535;SDS011;9913;51.168;4.124;2023-03-22T06:27:02;9.63;;;2.47;;
19535;SDS011;9913;51.168;4.124;2023-03-22T06:29:31;8.30;;;2.40;;
19535;SDS011;9913;51.168;4.124;2023-03-22T06:32:04;6.63;;;2.20;;
19535;SDS011;9913;51.168;4.124;2023-03-22T06:34:33;8.83;;;2.10;;
19535;SDS011;9913;51.168;4.124;2023-03-22T06:37:01;7.60;;;2.43;;
19535;SDS011;9913;51.168;4.124;2023-03-22T06:39:33;5.47;;;2.10;;
19535;SDS011;9913;51.168;4.124;2023-03-22T06:42:02;6.60;;;2.00;;
19535;SDS011;9913;51.168;4.124;2023-03-22T06:44:30;9.63;;;2.57;;
19535;SDS011;9913;51.168;4.124;2023-03-22T06:47:14;8.43;;;2.10;;
19535;SDS011;9913;51.168;4.124;2023-03-22T06:49:42;6.67;;;1.87;;
19535;SDS011;9913;51.168;4.124;2023-03-22T06:52:17;4.63;;;1.60;;
19535;SDS011;9913;51.168;4.124;2023-03-22T06:54:46;8.43;;;1.83;;
19535;SDS011;9913;51.168;4.124;2023-03-22T06:57:14;6.97;;;2.03;;
19535;SDS011;9913;51.168;4.124;2023-03-22T06:59:42;6.47;;;1.80;;
19535;SDS011;9913;51.168;4.124;2023-03-22T07:02:11;7.50;;;1.90;;
19535;SDS011;9913;51.168;4.124;2023-03-22T07:04:46;7.57;;;2.20;;
19535;SDS011;9913;51.168;4.124;2023-03-22T07:07:14;5.10;;;2.07;;
19535;SDS011;9913;51.168;4.124;2023-03-22T07:09:43;6.50;;;2.10;;
19535;SDS011;9913;51.168;4.124;2023-03-22T07:12:11;6.63;;;1.93;;
19535;SDS011;9913;51.168;4.124;2023-03-22T07:14:40;10.43;;;1.80;;
19535;SDS011;9913;51.168;4.124;2023-03-22T07:17:22;5.73;;;1.93;;
19535;SDS011;9913;51.168;4.124;2023-03-22T07:19:51;7.60;;;2.93;;
19535;SDS011;9913;51.168;4.124;2023-03-22T07:22:22;5.97;;;2.07;;
19535;SDS011;9913;51.168;4.124;2023-03-22T07:24:52;8.80;;;2.37;;
19535;SDS011;9913;51.168;4.124;2023-03-22T07:27:28;7.17;;;1.83;;
19535;SDS011;9913;51.168;4.124;2023-03-22T07:29:57;8.10;;;1.93;;
19535;SDS011;9913;51.168;4.124;2023-03-22T07:32:26;10.33;;;2.30;;
19535;SDS011;9913;51.168;4.124;2023-03-22T07:35:09;8.73;;;2.63;;
19535;SDS011;9913;51.168;4.124;2023-03-22T07:37:39;9.17;;;1.93;;
19535;SDS011;9913;51.168;4.124;2023-03-22T07:40:17;8.87;;;2.20;;
19535;SDS011;9913;51.168;4.124;2023-03-22T07:42:46;6.47;;;2.23;;
19535;SDS011;9913;51.168;4.124;2023-03-22T07:45:22;7.80;;;2.53;;
19535;SDS011;9913;51.168;4.124;2023-03-22T07:48:19;8.80;;;2.33;;
19535;SDS011;9913;51.168;4.124;2023-03-22T07:51:16;9.87;;;2.90;;
19535;SDS011;9913;51.168;4.124;2023-03-22T07:53:45;6.57;;;1.83;;
19535;SDS011;9913;51.168;4.124;2023-03-22T07:56:14;8.33;;;1.93;;
19535;SDS011;9913;51.168;4.124;2023-03-22T07:58:42;9.93;;;2.30;;
19535;SDS011;9913;51.168;4.124;2023-03-22T08:01:11;8.30;;;2.50;;
19535;SDS011;9913;51.168;4.124;2023-03-22T08:04:03;3.57;;;1.70;;
19535;SDS011;9913;51.168;4.124;2023-03-22T08:06:51;6.70;;;2.20;;
19535;SDS011;9913;51.168;4.124;2023-03-22T08:09:24;9.03;;;2.07;;
19535;SDS011;9913;51.168;4.124;2023-03-22T08:11:54;7.27;;;2.07;;
19535;SDS011;9913;51.168;4.124;2023-03-22T08:14:22;6.27;;;2.07;;
19535;SDS011;9913;51.168;4.124;2023-03-22T08:17:04;9.03;;;2.10;;
19535;SDS011;9913;51.168;4.124;2023-03-22T08:19:33;3.57;;;1.90;;
19535;SDS011;9913;51.168;4.124;2023-03-22T08:22:05;6.87;;;2.47;;
19535;SDS011;9913;51.168;4.124;2023-03-22T08:24:54;11.03;;;2.07;;
19535;SDS011;9913;51.168;4.124;2023-03-22T08:27:29;6.00;;;2.00;;
19535;SDS011;9913;51.168;4.124;2023-03-22T08:29:59;9.03;;;2.40;;
19535;SDS011;9913;51.168;4.124;2023-03-22T08:32:31;5.33;;;2.00;;
19535;SDS011;9913;51.168;4.124;2023-03-22T08:35:02;8.43;;;2.50;;
19535;SDS011;9913;51.168;4.124;2023-03-22T08:37:33;10.67;;;2.77;;
19535;SDS011;9913;51.168;4.124;2023-03-22T08:40:04;7.20;;;1.87;;
19535;SDS011;9913;51.168;4.124;2023-03-22T08:42:39;6.97;;;2.33;;
19535;SDS011;9913;51.168;4.124;2023-03-22T08:45:08;10.00;;;2.50;;
19535;SDS011;9913;51.168;4.124;2023-03-22T08:47:47;5.53;;;1.93;;
19535;SDS011;9913;51.168;4.124;2023-03-22T08:50:18;5.27;;;2.40;;
19535;SDS011;9913;51.168;4.124;2023-03-22T08:52:59;8.67;;;2.00;;
19535;SDS011;9913;51.168;4.124;2023-03-22T08:55:30;4.67;;;1.70;;
19535;SDS011;9913;51.168;4.124;2023-03-22T08:58:21;7.33;;;2.17;;
19535;SDS011;9913;51.168;4.124;2023-03-22T09:01:09;11.57;;;3.00;;
19535;SDS011;9913;51.168;4.124;2023-03-22T09:03:46;7.33;;;1.93;;
19535;SDS011;9913;51.168;4.124;2023-03-22T09:06:14;7.17;;;1.87;;
19535;SDS011;9913;51.168;4.124;2023-03-22T09:08:46;8.63;;;2.60;;
19535;SDS011;9913;51.168;4.124;2023-03-22T09:11:19;7.97;;;2.03;;
19535;SDS011;9913;51.168;4.124;2023-03-22T09:13:49;7.03;;;2.33;;
19535;SDS011;9913;51.168;4.124;2023-03-22T09:16:19;6.00;;;2.00;;
19535;SDS011;9913;51.168;4.124;2023-03-22T09:18:48;7.13;;;2.20;;
19535;SDS011;9913;51.168;4.124;2023-03-22T09:21:19;11.57;;;3.07;;
19535;SDS011;9913;51.168;4.124;2023-03-22T09:23:53;7.40;;;2.40;;
19535;SDS011;9913;51.168;4.124;2023-03-22T09:26:29;6.60;;;2.07;;
19535;SDS011;9913;51.168;4.124;2023-03-22T09:28:58;7.57;;;2.10;;
19535;SDS011;9913;51.168;4.124;2023-03-22T09:31:27;5.37;;;2.07;;
19535;SDS011;9913;51.168;4.124;2023-03-22T09:34:14;7.33;;;2.20;;
19535;SDS011;9913;51.168;4.124;2023-03-22T09:36:43;7.27;;;2.03;;
19535;SDS011;9913;51.168;4.124;2023-03-22T09:39:17;5.57;;;1.87;;
19535;SDS011;9913;51.168;4.124;2023-03-22T09:41:50;8.43;;;1.97;;
19535;SDS011;9913;51.168;4.124;2023-03-22T09:44:23;6.27;;;1.90;;
19535;SDS011;9913;51.168;4.124;2023-03-22T09:46:58;7.37;;;2.27;;
19535;SDS011;9913;51.168;4.124;2023-03-22T09:49:31;8.47;;;1.90;;
19535;SDS011;9913;51.168;4.124;2023-03-22T09:52:18;8.10;;;2.10;;
19535;SDS011;9913;51.168;4.124;2023-03-22T09:54:48;7.63;;;2.10;;
19535;SDS011;9913;51.168;4.124;2023-03-22T09:57:21;6.13;;;2.03;;
19535;SDS011;9913;51.168;4.124;2023-03-22T09:59:56;5.57;;;1.60;;
19535;SDS011;9913;51.168;4.124;2023-03-22T10:02:40;5.63;;;2.60;;
19535;SDS011;9913;51.168;4.124;2023-03-22T10:05:17;9.87;;;2.10;;
19535;SDS011;9913;51.168;4.124;2023-03-22T10:07:59;7.13;;;2.27;;
19535;SDS011;9913;51.168;4.124;2023-03-22T10:10:47;7.43;;;1.97;;
19535;SDS011;9913;51.168;4.124;2023-03-22T10:13:20;5.57;;;1.93;;
19535;SDS011;9913;51.168;4.124;2023-03-22T10:15:53;4.57;;;1.70;;
19535;SDS011;9913;51.168;4.124;2023-03-22T10:18:26;7.13;;;2.10;;
19535;SDS011;9913;51.168;4.124;2023-03-22T10:21:00;4.37;;;2.03;;
19535;SDS011;9913;51.168;4.124;2023-03-22T10:23:31;8.33;;;2.07;;
19535;SDS011;9913;51.168;4.124;2023-03-22T10:26:06;8.07;;;1.93;;
19535;SDS011;9913;51.168;4.124;2023-03-22T10:28:41;9.33;;;2.70;;
19535;SDS011;9913;51.168;4.124;2023-03-22T10:31:12;6.80;;;1.97;;
19535;SDS011;9913;51.168;4.124;2023-03-22T10:33:44;6.73;;;1.80;;
19535;SDS011;9913;51.168;4.124;2023-03-22T10:36:19;6.33;;;1.70;;
19535;SDS011;9913;51.168;4.124;2023-03-22T10:38:51;6.50;;;2.50;;
19535;SDS011;9913;51.168;4.124;2023-03-22T10:41:23;6.67;;;2.00;;
19535;SDS011;9913;51.168;4.124;2023-03-22T10:43:53;6.20;;;2.20;;
19535;SDS011;9913;51.168;4.124;2023-03-22T10:46:26;8.83;;;2.60;;
19535;SDS011;9913;51.168;4.124;2023-03-22T10:48:57;7.70;;;2.10;;
19535;SDS011;9913;51.168;4.124;2023-03-22T10:51:28;6.17;;;2.13;;
19535;SDS011;9913;51.168;4.124;2023-03-22T10:54:01;9.13;;;2.30;;
19535;SDS011;9913;51.168;4.124;2023-03-22T10:56:32;5.40;;;1.67;;
19535;SDS011;9913;51.168;4.124;2023-03-22T10:59:00;4.97;;;2.20;;
19535;SDS011;9913;51.168;4.124;2023-03-22T11:01:30;5.43;;;2.07;;
19535;SDS011;9913;51.168;4.124;2023-03-22T11:04:05;3.63;;;2.03;;
19535;SDS011;9913;51.168;4.124;2023-03-22T11:06:37;5.57;;;2.00;;
19535;SDS011;9913;51.168;4.124;2023-03-22T11:09:10;5.03;;;2.20;;
19535;SDS011;9913;51.168;4.124;2023-03-22T11:11:46;7.80;;;2.20;;
19535;SDS011;9913;51.168;4.124;2023-03-22T11:14:19;4.77;;;2.07;;
19535;SDS011;9913;51.168;4.124;2023-03-22T11:16:54;6.13;;;2.00;;
19535;SDS011;9913;51.168;4.124;2023-03-22T11:19:24;3.07;;;1.70;;
19535;SDS011;9913;51.168;4.124;2023-03-22T11:21:54;4.23;;;1.97;;
19535;SDS011;9913;51.168;4.124;2023-03-22T11:24:23;9.00;;;2.50;;
19535;SDS011;9913;51.168;4.124;2023-03-22T11:27:04;3.60;;;1.67;;
19535;SDS011;9913;51.168;4.124;2023-03-22T11:29:38;3.87;;;1.60;;
19535;SDS011;9913;51.168;4.124;2023-03-22T11:32:18;6.70;;;1.90;;
19535;SDS011;9913;51.168;4.124;2023-03-22T11:34:50;9.40;;;2.40;;
19535;SDS011;9913;51.168;4.124;2023-03-22T11:37:27;5.40;;;1.93;;
19535;SDS011;9913;51.168;4.124;2023-03-22T11:39:59;4.27;;;1.93;;
19535;SDS011;9913;51.168;4.124;2023-03-22T11:42:33;4.93;;;2.10;;
19535;SDS011;9913;51.168;4.124;2023-03-22T11:45:02;5.50;;;2.00;;
19535;SDS011;9913;51.168;4.124;2023-03-22T11:47:31;5.40;;;2.10;;
19535;SDS011;9913;51.168;4.124;2023-03-22T11:50:05;7.23;;;2.50;;
19535;SDS011;9913;51.168;4.124;2023-03-22T11:52:37;5.27;;;1.97;;
19535;SDS011;9913;51.168;4.124;2023-03-22T11:55:05;7.40;;;2.23;;
19535;SDS011;9913;51.168;4.124;2023-03-22T11:57:36;4.17;;;1.90;;
19535;SDS011;9913;51.168;4.124;2023-03-22T12:00:06;4.90;;;2.27;;
19535;SDS011;9913;51.168;4.124;2023-03-22T12:02:42;8.13;;;2.10;;
19535;SDS011;9913;51.168;4.124;2023-03-22T12:05:16;7.63;;;2.27;;
19535;SDS011;9913;51.168;4.124;2023-03-22T12:07:50;7.73;;;2.60;;
19535;SDS011;9913;51.168;4.124;2023-03-22T12:10:25;4.73;;;2.43;;
19535;SDS011;9913;51.168;4.124;2023-03-22T12:12:58;5.27;;;2.30;;
19535;SDS011;9913;51.168;4.124;2023-03-22T12:15:29;7.53;;;2.50;;
19535;SDS011;9913;51.168;4.124;2023-03-22T12:18:02;6.17;;;2.63;;
19535;SDS011;9913;51.168;4.124;2023-03-22T12:20:37;8.03;;;2.40;;
19535;SDS011;9913;51.168;4.124;2023-03-22T12:23:11;3.50;;;2.37;;
19535;SDS011;9913;51.168;4.124;2023-03-22T12:25:43;3.93;;;1.90;;
19535;SDS011;9913;51.168;4.124;2023-03-22T12:28:18;5.43;;;2.17;;
19535;SDS011;9913;51.168;4.124;2023-03-22T12:30:50;3.87;;;2.30;;
19535;SDS011;9913;51.168;4.124;2023-03-22T12:33:22;3.77;;;1.67;;
19535;SDS011;9913;51.168;4.124;2023-03-22T12:35:54;3.57;;;1.83;;
19535;SDS011;9913;51.168;4.124;2023-03-22T12:38:26;5.23;;;2.00;;
19535;SDS011;9913;51.168;4.124;2023-03-22T12:41:00;5.17;;;2.37;;
19535;SDS011;9913;51.168;4.124;2023-03-22T12:43:40;4.43;;;1.97;;
19535;SDS011;9913;51.168;4.124;2023-03-22T12:46:15;5.90;;;2.10;;
19535;SDS011;9913;51.168;4.124;2023-03-22T12:48:47;5.40;;;2.17;;
19535;SDS011;9913;51.168;4.124;2023-03-22T12:51:18;5.73;;;2.20;;
19535;SDS011;9913;51.168;4.124;2023-03-22T12:53:47;3.40;;;1.90;;
19535;SDS011;9913;51.168;4.124;2023-03-22T12:56:19;5.10;;;2.27;;
19535;SDS011;9913;51.168;4.124;2023-03-22T12:58:52;3.90;;;2.10;;
19535;SDS011;9913;51.168;4.124;2023-03-22T13:01:28;4.60;;;2.10;;
19535;SDS011;9913;51.168;4.124;2023-03-22T13:04:01;6.00;;;2.10;;
19535;SDS011;9913;51.168;4.124;2023-03-22T13:06:57;4.53;;;2.40;;
19535;SDS011;9913;51.168;4.124;2023-03-22T13:09:38;5.93;;;1.90;;
19535;SDS011;9913;51.168;4.124;2023-03-22T13:12:25;9.37;;;2.60;;
19535;SDS011;9913;51.168;4.124;2023-03-22T13:14:59;3.60;;;2.10;;
19535;SDS011;9913;51.168;4.124;2023-03-22T13:17:38;6.57;;;2.30;;
19535;SDS011;9913;51.168;4.124;2023-03-22T13:20:23;3.83;;;2.30;;
19535;SDS011;9913;51.168;4.124;2023-03-22T13:22:58;6.17;;;2.30;;
19535;SDS011;9913;51.168;4.124;2023-03-22T13:25:30;5.17;;;2.40;;
19535;SDS011;9913;51.168;4.124;2023-03-22T13:28:02;5.20;;;2.60;;
19535;SDS011;9913;51.168;4.124;2023-03-22T13:30:48;6.43;;;3.13;;
19535;SDS011;9913;51.168;4.124;2023-03-22T13:33:19;5.33;;;2.70;;
19535;SDS011;9913;51.168;4.124;2023-03-22T13:35:53;5.97;;;2.43;;
19535;SDS011;9913;51.168;4.124;2023-03-22T13:38:23;7.77;;;2.73;;
19535;SDS011;9913;51.168;4.124;2023-03-22T13:40:58;4.97;;;3.20;;
19535;SDS011;9913;51.168;4.124;2023-03-22T13:43:33;6.90;;;2.97;;
19535;SDS011;9913;51.168;4.124;2023-03-22T13:46:11;10.87;;;3.03;;
19535;SDS011;9913;51.168;4.124;2023-03-22T13:48:56;6.27;;;3.40;;
19535;SDS011;9913;51.168;4.124;2023-03-22T13:51:43;6.23;;;3.03;;
19535;SDS011;9913;51.168;4.124;2023-03-22T13:54:16;5.67;;;2.90;;
19535;SDS011;9913;51.168;4.124;2023-03-22T13:56:50;6.90;;;3.07;;
19535;SDS011;9913;51.168;4.124;2023-03-22T13:59:23;7.27;;;3.20;;
19535;SDS011;9913;51.168;4.124;2023-03-22T14:01:59;7.40;;;3.00;;
19535;SDS011;9913;51.168;4.124;2023-03-22T14:04:32;6.70;;;3.03;;
19535;SDS011;9913;51.168;4.124;2023-03-22T14:07:07;6.73;;;3.00;;
19535;SDS011;9913;51.168;4.124;2023-03-22T14:09:43;5.83;;;3.60;;
19535;SDS011;9913;51.168;4.124;2023-03-22T14:12:17;6.43;;;3.40;;
19535;SDS011;9913;51.168;4.124;2023-03-22T14:14:49;4.43;;;2.87;;
19535;SDS011;9913;51.168;4.124;2023-03-22T14:17:28;7.37;;;3.20;;
19535;SDS011;9913;51.168;4.124;2023-03-22T14:20:01;7.27;;;3.17;;
19535;SDS011;9913;51.168;4.124;2023-03-22T14:22:38;4.80;;;3.20;;
19535;SDS011;9913;51.168;4.124;2023-03-22T14:25:12;7.97;;;3.77;;
19535;SDS011;9913;51.168;4.124;2023-03-22T14:27:43;8.17;;;3.77;;
19535;SDS011;9913;51.168;4.124;2023-03-22T14:30:18;6.63;;;3.47;;
19535;SDS011;9913;51.168;4.124;2023-03-22T14:32:54;6.43;;;3.80;;
19535;SDS011;9913;51.168;4.124;2023-03-22T14:35:25;8.37;;;4.30;;
19535;SDS011;9913;51.168;4.124;2023-03-22T14:38:01;7.97;;;3.80;;
19535;SDS011;9913;51.168;4.124;2023-03-22T14:40:30;6.80;;;3.83;;
19535;SDS011;9913;51.168;4.124;2023-03-22T14:45:48;5.27;;;3.77;;
19535;SDS011;9913;51.168;4.124;2023-03-22T14:48:30;7.67;;;4.00;;
19535;SDS011;9913;51.168;4.124;2023-03-22T14:51:00;6.83;;;4.20;;
19535;SDS011;9913;51.168;4.124;2023-03-22T14:53:32;6.90;;;4.20;;
19535;SDS011;9913;51.168;4.124;2023-03-22T14:56:02;7.37;;;5.10;;
19535;SDS011;9913;51.168;4.124;2023-03-22T14:58:32;5.93;;;4.20;;
19535;SDS011;9913;51.168;4.124;2023-03-22T15:01:03;9.37;;;4.60;;
19535;SDS011;9913;51.168;4.124;2023-03-22T15:03:38;5.23;;;4.30;;
19535;SDS011;9913;51.168;4.124;2023-03-22T15:06:06;6.40;;;4.37;;
19535;SDS011;9913;51.168;4.124;2023-03-22T15:08:35;7.87;;;4.50;;
19535;SDS011;9913;51.168;4.124;2023-03-22T15:11:03;8.47;;;4.80;;
19535;SDS011;9913;51.168;4.124;2023-03-22T15:13:34;8.67;;;5.00;;
19535;SDS011;9913;51.168;4.124;2023-03-22T15:16:04;8.90;;;4.77;;
19535;SDS011;9913;51.168;4.124;2023-03-22T15:18:33;8.93;;;5.20;;
19535;SDS011;9913;51.168;4.124;2023-03-22T15:21:03;8.70;;;5.50;;
19535;SDS011;9913;51.168;4.124;2023-03-22T15:23:33;10.07;;;5.50;;
19535;SDS011;9913;51.168;4.124;2023-03-22T15:26:06;9.50;;;5.43;;
19535;SDS011;9913;51.168;4.124;2023-03-22T15:28:40;8.40;;;5.77;;
19535;SDS011;9913;51.168;4.124;2023-03-22T15:31:19;9.03;;;5.70;;
19535;SDS011;9913;51.168;4.124;2023-03-22T15:33:49;9.33;;;5.53;;
19535;SDS011;9913;51.168;4.124;2023-03-22T15:36:19;10.73;;;6.50;;
19535;SDS011;9913;51.168;4.124;2023-03-22T15:38:47;9.60;;;6.10;;
19535;SDS011;9913;51.168;4.124;2023-03-22T15:41:17;8.83;;;6.20;;
19535;SDS011;9913;51.168;4.124;2023-03-22T15:43:46;13.83;;;7.23;;
19535;SDS011;9913;51.168;4.124;2023-03-22T15:46:15;13.40;;;6.80;;
19535;SDS011;9913;51.168;4.124;2023-03-22T15:48:45;12.60;;;7.50;;
19535;SDS011;9913;51.168;4.124;2023-03-22T15:51:19;13.73;;;7.93;;
19535;SDS011;9913;51.168;4.124;2023-03-22T15:54:00;12.80;;;7.60;;